Kagoshima

Airport
ICAO code: 
RJFK
IATA Code: 
KOJ
Summary
ICAO Region: 
APAC
Territory: 
Location: 
Kirishima, Kagoshima Prefecture
Serving: 
Kagoshima
Elevation: 
892 ft
Coordinates: 
Aerial View: 
31° 48' 11.897" N, 130° 43' 9.615" E
Metar
Observation
RJFK 272100Z 27004KT 9999 FEW015 BKN/// 17/13 Q1008
Station
Kagoshima Airport
Date/Time
2022-05-27 21:00:00
Wind direction
270°
Wind speed
04 kts
Lowest cloud amount
few clouds
Temperature
17°C
Dew point
13°C
Humidity
77%
QNH
1008 hPa
Weather condition
n/a

Kagoshima Airport is located in Kirishima, Kagoshima Prefecture, Japan, 29.6 km northeast of Kagoshima City.

Climatology

Humid Sub-tropical climate (Köppen climate classification Cwa) - Hot humid summers and cooler winter. Significant precipitation in all seasons but drier in the winter.

Runways

Designator Length Width Surface Rops
16/34 2999 46 ASP Yes/Yes
Airport map: 
Aerial View: 

Accidents and Serious Incidents at or in the vicinity of RJFK

SKYbrary Partners:

Safety knowledge contributed by: